Time;durP1;ratioP1;P1;durP2;ratioP2;P2;SDS_P1;SDS_P2;PMS_P1;PMS_P2;Temp;Humidity;BMP_temperature;BMP_pressure;BME280_temperature;BME280_humidity;BME280_pressure;Samples;Min_cycle;Max_cycle;Signal;HPM_P1;HPM_P2
2023/07/31 00:01:20;;;;;;;4.18;1.10;;;;;;;;;;5105707;27;41546;-64
2023/07/31 00:03:48;;;;;;;1.27;1.13;;;;;;;;;;5106695;27;42385;-64
2023/07/31 00:06:16;;;;;;;2.20;1.13;;;;;;;;;;5106253;27;42209;-64
2023/07/31 00:08:44;;;;;;;1.75;1.17;;;;;;;;;;5106693;27;42253;-65
2023/07/31 00:11:13;;;;;;;1.98;1.30;;;;;;;;;;5106885;27;42640;-65
2023/07/31 00:13:41;;;;;;;1.50;1.17;;;;;;;;;;5105749;27;42086;-64
2023/07/31 00:16:09;;;;;;;1.90;1.30;;;;;;;;;;5107199;27;42253;-64
2023/07/31 00:18:37;;;;;;;1.85;1.10;;;;;;;;;;5106156;27;42999;-64
2023/07/31 00:21:05;;;;;;;1.40;1.30;;;;;;;;;;5105943;27;41401;-65
2023/07/31 00:23:33;;;;;;;1.38;1.10;;;;;;;;;;5102228;27;41454;-65
2023/07/31 00:26:00;;;;;;;3.22;1.52;;;;;;;;;;5096412;28;42552;-65
2023/07/31 00:28:30;;;;;;;1.30;1.00;;;;;;;;;;5104645;27;42234;-65
2023/07/31 00:30:58;;;;;;;2.70;1.40;;;;;;;;;;5099658;28;42418;-64
2023/07/31 00:33:26;;;;;;;1.90;1.10;;;;;;;;;;5098336;28;43543;-64
2023/07/31 00:35:54;;;;;;;2.85;1.50;;;;;;;;;;5103996;28;39755;-65
2023/07/31 00:38:22;;;;;;;3.20;1.40;;;;;;;;;;5121209;27;40726;-65
2023/07/31 00:40:50;;;;;;;2.40;1.30;;;;;;;;;;5106026;28;40714;-65
2023/07/31 00:43:18;;;;;;;1.70;0.90;;;;;;;;;;5104461;28;41343;-65
2023/07/31 00:45:48;;;;;;;1.50;1.20;;;;;;;;;;5106307;28;41987;-64
2023/07/31 00:48:16;;;;;;;1.63;1.00;;;;;;;;;;5105886;27;41361;-65
2023/07/31 00:50:44;;;;;;;1.30;0.98;;;;;;;;;;5093379;28;42265;-65
2023/07/31 00:53:12;;;;;;;1.00;0.90;;;;;;;;;;5086607;28;42123;-65
2023/07/31 00:55:40;;;;;;;0.93;0.80;;;;;;;;;;5085463;28;40570;-65
2023/07/31 00:58:08;;;;;;;1.55;1.10;;;;;;;;;;5088365;28;42829;-65
2023/07/31 01:00:36;;;;;;;1.15;0.82;;;;;;;;;;5086006;28;40708;-65
2023/07/31 01:03:05;;;;;;;1.02;0.73;;;;;;;;;;5096117;28;40281;-65
2023/07/31 01:05:36;;;;;;;1.55;0.82;;;;;;;;;;5092190;28;43274;-65
2023/07/31 01:08:05;;;;;;;0.60;0.50;;;;;;;;;;5090098;28;40827;-65
2023/07/31 01:10:35;;;;;;;1.85;0.95;;;;;;;;;;5105886;28;41038;-65
2023/07/31 01:13:03;;;;;;;1.27;0.63;;;;;;;;;;5110566;27;43858;-65
2023/07/31 01:15:31;;;;;;;1.38;0.80;;;;;;;;;;5108658;28;41270;-65
2023/07/31 01:17:59;;;;;;;1.58;0.60;;;;;;;;;;5110389;28;42329;-65
2023/07/31 01:20:28;;;;;;;2.15;0.63;;;;;;;;;;5109504;28;41077;-65
2023/07/31 01:23:21;;;;;;;2.10;0.90;;;;;;;;;;5109631;28;42690;-64
2023/07/31 01:25:54;;;;;;;1.52;0.90;;;;;;;;;;5107235;28;42234;-65
2023/07/31 01:28:25;;;;;;;1.20;1.00;;;;;;;;;;5107714;28;43214;-65
2023/07/31 01:30:53;;;;;;;2.20;1.13;;;;;;;;;;5107552;28;41924;-65
2023/07/31 01:33:21;;;;;;;1.70;1.20;;;;;;;;;;5107310;28;41499;-65
2023/07/31 01:35:49;;;;;;;3.15;1.60;;;;;;;;;;5105363;28;41100;-65
2023/07/31 01:38:17;;;;;;;3.50;1.55;;;;;;;;;;5094860;28;41638;-64
2023/07/31 01:40:45;;;;;;;3.85;1.80;;;;;;;;;;5109763;28;42712;-65
2023/07/31 01:43:14;;;;;;;4.43;1.90;;;;;;;;;;5109375;27;42658;-65
2023/07/31 01:45:42;;;;;;;3.47;1.83;;;;;;;;;;5107419;27;41024;-65
2023/07/31 01:48:10;;;;;;;6.72;2.40;;;;;;;;;;5099144;28;41698;-65
2023/07/31 01:50:38;;;;;;;4.63;2.25;;;;;;;;;;5121626;27;41452;-65
2023/07/31 01:53:07;;;;;;;4.28;1.92;;;;;;;;;;5107412;28;40967;-65
2023/07/31 01:55:35;;;;;;;7.70;2.67;;;;;;;;;;5108730;28;41292;-65
2023/07/31 01:58:03;;;;;;;6.22;3.03;;;;;;;;;;5107633;28;40934;-65
2023/07/31 02:00:32;;;;;;;3.92;2.60;;;;;;;;;;5106996;28;40640;-65
2023/07/31 02:03:00;;;;;;;5.75;3.10;;;;;;;;;;5109508;27;41971;-65
2023/07/31 02:05:28;;;;;;;8.15;3.58;;;;;;;;;;5103075;28;41753;-65
2023/07/31 02:07:56;;;;;;;4.53;2.58;;;;;;;;;;5100202;28;42119;-65
2023/07/31 02:10:27;;;;;;;6.78;2.67;;;;;;;;;;5105089;27;42628;-65
2023/07/31 02:12:55;;;;;;;4.78;2.55;;;;;;;;;;5097020;28;42502;-65
2023/07/31 02:15:23;;;;;;;8.57;3.60;;;;;;;;;;5104838;28;42357;-65
2023/07/31 02:17:53;;;;;;;10.70;3.53;;;;;;;;;;5088499;28;42022;-65
2023/07/31 02:20:21;;;;;;;7.07;2.90;;;;;;;;;;5100298;28;42661;-65
2023/07/31 02:22:49;;;;;;;7.85;3.65;;;;;;;;;;5108506;28;41339;-65
2023/07/31 02:25:17;;;;;;;11.52;4.57;;;;;;;;;;5109041;28;41628;-65
2023/07/31 02:27:46;;;;;;;10.95;3.38;;;;;;;;;;5108211;27;41539;-65
2023/07/31 02:30:15;;;;;;;11.35;4.32;;;;;;;;;;5106775;28;41276;-65
2023/07/31 02:32:44;;;;;;;6.07;3.20;;;;;;;;;;5106338;28;40595;-65
2023/07/31 02:35:15;;;;;;;9.20;3.35;;;;;;;;;;5123669;27;40228;-65
2023/07/31 02:37:43;;;;;;;9.73;4.55;;;;;;;;;;5108372;27;41729;-65
2023/07/31 02:40:11;;;;;;;6.20;3.50;;;;;;;;;;5108214;28;41781;-64
2023/07/31 02:42:39;;;;;;;8.05;3.70;;;;;;;;;;5107766;28;41272;-65
2023/07/31 02:45:08;;;;;;;6.93;3.80;;;;;;;;;;5107064;28;40118;-65
2023/07/31 02:47:36;;;;;;;7.53;4.10;;;;;;;;;;5107489;28;33182;-65
2023/07/31 02:50:04;;;;;;;11.30;4.88;;;;;;;;;;5108564;28;41655;-65
2023/07/31 02:52:33;;;;;;;9.57;4.15;;;;;;;;;;5090755;28;43345;-64
2023/07/31 02:55:01;;;;;;;6.82;3.70;;;;;;;;;;5106138;28;40126;-65
2023/07/31 02:57:29;;;;;;;7.07;3.80;;;;;;;;;;5105733;28;40507;-64
2023/07/31 02:59:57;;;;;;;9.70;4.05;;;;;;;;;;5108718;28;42228;-64
2023/07/31 03:02:25;;;;;;;6.57;4.07;;;;;;;;;;5090603;28;42103;-64
2023/07/31 03:04:53;;;;;;;9.43;4.05;;;;;;;;;;5103059;28;41239;-64
2023/07/31 03:07:21;;;;;;;8.30;4.38;;;;;;;;;;5104669;28;41666;-64
2023/07/31 03:09:51;;;;;;;10.65;4.70;;;;;;;;;;5094310;28;42646;-64
2023/07/31 03:12:19;;;;;;;10.68;4.93;;;;;;;;;;5107899;28;42040;-64
2023/07/31 03:14:47;;;;;;;8.55;4.38;;;;;;;;;;5106063;27;39594;-65
2023/07/31 03:17:15;;;;;;;9.15;5.15;;;;;;;;;;5107279;28;41894;-64
2023/07/31 03:19:43;;;;;;;9.48;4.45;;;;;;;;;;5107600;28;42204;-64
2023/07/31 03:22:11;;;;;;;8.85;4.28;;;;;;;;;;5107651;28;41407;-64
2023/07/31 03:24:39;;;;;;;10.82;4.25;;;;;;;;;;5107216;28;42718;-64
2023/07/31 03:27:09;;;;;;;8.63;4.22;;;;;;;;;;5107918;28;43175;-64
2023/07/31 03:29:36;;;;;;;6.68;3.80;;;;;;;;;;5105505;28;40050;-64
2023/07/31 03:32:05;;;;;;;9.65;4.40;;;;;;;;;;5107630;28;42441;-64
2023/07/31 03:34:33;;;;;;;8.52;4.25;;;;;;;;;;5102850;28;40819;-64
2023/07/31 03:37:01;;;;;;;9.25;3.75;;;;;;;;;;5100503;28;42692;-65
2023/07/31 03:39:32;;;;;;;6.47;3.95;;;;;;;;;;5106868;28;20221;-64
2023/07/31 03:42:00;;;;;;;10.23;4.03;;;;;;;;;;5107036;27;41850;-64
2023/07/31 03:44:31;;;;;;;9.93;4.50;;;;;;;;;;5105599;27;41545;-64
2023/07/31 03:46:59;;;;;;;7.20;3.88;;;;;;;;;;5106967;28;43167;-65
2023/07/31 03:49:27;;;;;;;10.88;5.13;;;;;;;;;;5105551;28;39933;-65
2023/07/31 03:51:55;;;;;;;8.85;4.57;;;;;;;;;;5107016;28;41370;-64
2023/07/31 03:54:23;;;;;;;11.07;4.95;;;;;;;;;;5105729;27;41321;-64
2023/07/31 03:56:51;;;;;;;10.55;5.32;;;;;;;;;;5086831;28;42694;-64
2023/07/31 03:59:19;;;;;;;11.75;5.20;;;;;;;;;;5085926;28;42211;-65
2023/07/31 04:01:48;;;;;;;10.35;4.72;;;;;;;;;;5086540;28;42403;-65
2023/07/31 04:04:16;;;;;;;12.13;5.45;;;;;;;;;;5086487;28;41417;-64
2023/07/31 04:06:44;;;;;;;8.18;4.03;;;;;;;;;;5097573;28;42313;-64
2023/07/31 04:09:12;;;;;;;15.40;5.15;;;;;;;;;;5107743;27;41321;-64
2023/07/31 04:11:40;;;;;;;12.77;4.93;;;;;;;;;;5105269;27;42683;-64
2023/07/31 04:14:08;;;;;;;9.80;5.43;;;;;;;;;;5101405;27;41631;-64
2023/07/31 04:16:36;;;;;;;12.43;5.53;;;;;;;;;;5088605;28;42405;-65
2023/07/31 04:19:06;;;;;;;10.32;4.30;;;;;;;;;;5094207;27;42435;-64
2023/07/31 04:21:34;;;;;;;12.38;5.10;;;;;;;;;;5097717;28;41249;-64
2023/07/31 04:24:02;;;;;;;14.45;4.95;;;;;;;;;;5106708;27;41706;-64
2023/07/31 04:26:30;;;;;;;12.32;4.68;;;;;;;;;;5104021;27;42129;-64
2023/07/31 04:28:58;;;;;;;13.70;5.32;;;;;;;;;;5106464;27;41138;-64
2023/07/31 04:31:26;;;;;;;14.95;5.30;;;;;;;;;;5105223;27;42197;-64
2023/07/31 04:33:54;;;;;;;11.45;4.95;;;;;;;;;;5106186;27;42987;-64
2023/07/31 04:36:23;;;;;;;12.48;4.93;;;;;;;;;;5106381;27;41406;-64
2023/07/31 04:38:51;;;;;;;12.07;5.25;;;;;;;;;;5090593;28;42363;-64
2023/07/31 04:41:19;;;;;;;13.88;5.07;;;;;;;;;;5105843;27;41294;-64
2023/07/31 04:43:47;;;;;;;9.60;4.65;;;;;;;;;;5106226;27;41496;-64
2023/07/31 04:46:15;;;;;;;11.52;5.25;;;;;;;;;;5106345;27;41864;-64
2023/07/31 04:48:43;;;;;;;10.50;4.97;;;;;;;;;;5101531;27;41442;-64
2023/07/31 04:51:11;;;;;;;14.32;5.90;;;;;;;;;;5106547;27;42094;-64
2023/07/31 04:53:40;;;;;;;10.50;5.32;;;;;;;;;;5104278;27;42062;-64
2023/07/31 04:56:08;;;;;;;10.05;5.07;;;;;;;;;;5106816;27;41972;-64
2023/07/31 04:58:36;;;;;;;13.10;5.57;;;;;;;;;;5105517;27;43037;-64
2023/07/31 05:01:04;;;;;;;15.07;5.47;;;;;;;;;;5105550;27;41111;-64
2023/07/31 05:03:32;;;;;;;14.43;6.05;;;;;;;;;;5093281;27;42142;-65
2023/07/31 05:06:00;;;;;;;11.60;5.10;;;;;;;;;;5105953;27;42041;-64
2023/07/31 05:08:28;;;;;;;12.43;5.50;;;;;;;;;;5105203;27;41060;-63
2023/07/31 05:10:57;;;;;;;14.23;5.70;;;;;;;;;;5106411;27;42542;-64
2023/07/31 05:13:25;;;;;;;11.90;5.68;;;;;;;;;;5105732;27;41550;-64
2023/07/31 05:15:53;;;;;;;16.15;5.68;;;;;;;;;;5105686;27;42200;-64
2023/07/31 05:18:21;;;;;;;12.23;5.63;;;;;;;;;;5106631;27;42328;-63
2023/07/31 05:20:49;;;;;;;14.65;5.32;;;;;;;;;;5105995;27;41591;-63
2023/07/31 05:23:17;;;;;;;10.13;5.35;;;;;;;;;;5103001;27;42136;-64
2023/07/31 05:25:45;;;;;;;12.10;5.28;;;;;;;;;;5104025;28;42741;-64
2023/07/31 05:28:15;;;;;;;12.35;4.95;;;;;;;;;;5097342;27;40589;-64
2023/07/31 05:30:43;;;;;;;14.25;5.93;;;;;;;;;;5098266;28;42706;-64
2023/07/31 05:33:11;;;;;;;13.30;5.95;;;;;;;;;;5105143;27;42281;-64
2023/07/31 05:35:42;;;;;;;14.02;5.13;;;;;;;;;;5105069;27;41776;-64
2023/07/31 05:38:09;;;;;;;14.73;5.35;;;;;;;;;;5106419;27;41729;-64
2023/07/31 05:40:38;;;;;;;16.55;6.05;;;;;;;;;;5109360;27;43006;-64
2023/07/31 05:43:08;;;;;;;11.88;5.18;;;;;;;;;;5108918;27;40993;-63
2023/07/31 05:45:37;;;;;;;12.98;5.18;;;;;;;;;;5107985;27;42288;-63
2023/07/31 05:48:05;;;;;;;13.90;5.53;;;;;;;;;;5109652;27;41563;-64
2023/07/31 05:50:33;;;;;;;11.00;5.43;;;;;;;;;;5107119;28;41422;-63
2023/07/31 05:53:01;;;;;;;11.18;5.40;;;;;;;;;;5109619;27;42236;-64
2023/07/31 05:55:29;;;;;;;10.20;5.15;;;;;;;;;;5096864;27;41261;-64
2023/07/31 05:57:57;;;;;;;11.77;5.25;;;;;;;;;;5088538;28;41534;-64
2023/07/31 06:00:28;;;;;;;13.80;5.50;;;;;;;;;;5088268;28;41473;-63
2023/07/31 06:02:57;;;;;;;12.18;4.63;;;;;;;;;;5089147;28;41996;-64
2023/07/31 06:05:26;;;;;;;8.82;5.00;;;;;;;;;;5088194;28;42541;-64
2023/07/31 06:07:54;;;;;;;7.13;4.75;;;;;;;;;;5109232;27;41473;-64
2023/07/31 06:10:22;;;;;;;13.18;5.10;;;;;;;;;;5108742;27;42792;-64
2023/07/31 06:12:50;;;;;;;11.38;4.68;;;;;;;;;;5107690;27;42075;-64
2023/07/31 06:15:19;;;;;;;11.02;5.07;;;;;;;;;;5109306;27;42417;-64
2023/07/31 06:17:47;;;;;;;10.02;4.40;;;;;;;;;;5108079;27;41763;-64
2023/07/31 06:20:16;;;;;;;12.80;5.22;;;;;;;;;;5107887;27;42148;-64
2023/07/31 06:22:44;;;;;;;8.43;4.22;;;;;;;;;;5100101;27;42294;-64
2023/07/31 06:25:12;;;;;;;8.27;4.13;;;;;;;;;;5097470;28;41429;-64
2023/07/31 06:27:42;;;;;;;12.80;4.90;;;;;;;;;;5096474;27;42127;-63
2023/07/31 06:30:11;;;;;;;9.10;4.57;;;;;;;;;;5095886;28;41726;-64
2023/07/31 06:32:40;;;;;;;8.80;4.88;;;;;;;;;;5107287;27;42786;-64
2023/07/31 06:35:08;;;;;;;10.88;4.35;;;;;;;;;;5106810;28;41629;-64
2023/07/31 06:37:40;;;;;;;10.10;4.70;;;;;;;;;;5093413;27;41849;-64
2023/07/31 06:40:08;;;;;;;9.77;4.03;;;;;;;;;;5107745;27;42788;-64
2023/07/31 06:42:36;;;;;;;6.90;4.35;;;;;;;;;;5100740;27;41294;-64
2023/07/31 06:45:05;;;;;;;7.80;3.92;;;;;;;;;;5108548;27;42615;-64
2023/07/31 06:47:33;;;;;;;6.13;4.07;;;;;;;;;;5098967;27;42171;-64
2023/07/31 06:50:01;;;;;;;6.68;4.05;;;;;;;;;;5096310;27;42317;-64
2023/07/31 06:52:29;;;;;;;5.68;3.60;;;;;;;;;;5099747;27;42241;-64
2023/07/31 06:55:04;;;;;;;8.82;3.80;;;;;;;;;;5099920;27;41228;-64
2023/07/31 06:57:32;;;;;;;8.77;3.92;;;;;;;;;;5096139;28;41266;-64
2023/07/31 07:00:00;;;;;;;8.93;4.18;;;;;;;;;;5102513;27;41176;-64
2023/07/31 07:02:28;;;;;;;8.80;3.40;;;;;;;;;;5102442;28;41952;-64
2023/07/31 07:04:56;;;;;;;8.90;3.97;;;;;;;;;;5107857;27;41236;-64
2023/07/31 07:07:24;;;;;;;6.57;3.50;;;;;;;;;;5107874;27;41403;-64
2023/07/31 07:09:52;;;;;;;7.03;3.50;;;;;;;;;;5104442;27;42402;-64
2023/07/31 07:12:22;;;;;;;6.25;3.28;;;;;;;;;;5108223;27;42685;-64
2023/07/31 07:14:50;;;;;;;7.18;3.30;;;;;;;;;;5106866;27;41890;-64
2023/07/31 07:17:18;;;;;;;6.80;3.25;;;;;;;;;;5104108;27;42651;-64
2023/07/31 07:19:46;;;;;;;6.13;3.13;;;;;;;;;;5107721;27;42062;-64
2023/07/31 07:22:14;;;;;;;7.43;3.17;;;;;;;;;;5107610;27;41258;-64
2023/07/31 07:24:42;;;;;;;5.80;3.00;;;;;;;;;;5108215;27;41962;-63
2023/07/31 07:27:10;;;;;;;5.60;3.53;;;;;;;;;;5103621;27;42768;-64
2023/07/31 07:29:40;;;;;;;6.35;3.05;;;;;;;;;;5104511;27;41306;-63
2023/07/31 07:32:08;;;;;;;8.55;3.13;;;;;;;;;;5097674;28;42081;-64
2023/07/31 07:34:36;;;;;;;4.10;2.50;;;;;;;;;;5097420;28;42369;-64
2023/07/31 07:37:04;;;;;;;4.50;2.53;;;;;;;;;;5098447;27;42667;-64
2023/07/31 07:39:32;;;;;;;6.22;2.67;;;;;;;;;;5098187;27;42217;-64
2023/07/31 07:42:00;;;;;;;5.50;3.03;;;;;;;;;;5095764;28;41485;-64
2023/07/31 07:44:28;;;;;;;4.50;2.53;;;;;;;;;;5095873;28;41363;-63
2023/07/31 07:46:57;;;;;;;8.15;2.40;;;;;;;;;;5096653;27;42222;-63
2023/07/31 07:49:25;;;;;;;4.40;2.22;;;;;;;;;;5097180;27;41541;-67
2023/07/31 07:51:53;;;;;;;5.93;2.45;;;;;;;;;;5092563;28;41395;-64
2023/07/31 07:54:21;;;;;;;3.80;2.03;;;;;;;;;;5106619;28;41421;-64
2023/07/31 07:56:49;;;;;;;5.57;2.20;;;;;;;;;;5106418;27;41747;-65
2023/07/31 07:59:17;;;;;;;5.95;1.85;;;;;;;;;;5107410;27;43272;-65
2023/07/31 08:01:45;;;;;;;4.68;2.15;;;;;;;;;;5107263;27;41301;-64
2023/07/31 08:04:14;;;;;;;3.65;1.90;;;;;;;;;;5107077;27;41609;-64
2023/07/31 08:06:42;;;;;;;2.72;1.80;;;;;;;;;;5107151;27;42394;-64
2023/07/31 08:09:10;;;;;;;4.55;1.98;;;;;;;;;;5107365;27;40712;-64
2023/07/31 08:11:38;;;;;;;3.70;1.85;;;;;;;;;;5106125;27;41856;-69
2023/07/31 08:14:06;;;;;;;4.50;1.70;;;;;;;;;;5107662;27;42880;-69
2023/07/31 08:16:34;;;;;;;2.65;1.30;;;;;;;;;;5105853;27;42417;-65
2023/07/31 08:19:02;;;;;;;2.85;1.83;;;;;;;;;;5106737;27;42844;-67
2023/07/31 08:21:32;;;;;;;3.58;1.55;;;;;;;;;;5106151;27;40965;-66
2023/07/31 08:24:00;;;;;;;7.95;1.58;;;;;;;;;;5106590;27;43201;-66
2023/07/31 08:26:28;;;;;;;3.65;1.38;;;;;;;;;;5105366;27;42207;-67
2023/07/31 08:28:57;;;;;;;3.85;0.98;;;;;;;;;;5107172;27;40932;-70
2023/07/31 08:31:25;;;;;;;3.40;1.45;;;;;;;;;;5106363;27;41716;-74
2023/07/31 08:33:53;;;;;;;6.15;1.20;;;;;;;;;;5105859;27;43692;-74
2023/07/31 08:36:21;;;;;;;4.25;0.80;;;;;;;;;;5106800;27;41992;-69
2023/07/31 08:38:50;;;;;;;2.13;1.13;;;;;;;;;;5105565;27;42033;-69
2023/07/31 08:41:18;;;;;;;3.95;0.98;;;;;;;;;;5106237;27;42313;-70
2023/07/31 08:43:46;;;;;;;4.28;1.10;;;;;;;;;;5106990;27;42188;-74
2023/07/31 08:46:15;;;;;;;5.68;1.17;;;;;;;;;;5106036;27;42012;-73
2023/07/31 08:48:43;;;;;;;4.82;1.02;;;;;;;;;;5100435;27;42249;-71
2023/07/31 08:51:12;;;;;;;7.10;1.35;;;;;;;;;;5096636;28;41131;-73
2023/07/31 08:53:39;;;;;;;12.40;1.38;;;;;;;;;;5102162;27;41827;-69
2023/07/31 08:56:09;;;;;;;9.25;1.10;;;;;;;;;;5103516;27;42050;-65
2023/07/31 08:58:37;;;;;;;7.25;1.33;;;;;;;;;;5092801;28;41010;-69
2023/07/31 09:01:05;;;;;;;17.20;1.42;;;;;;;;;;5102114;27;41039;-68
2023/07/31 09:03:34;;;;;;;2.75;1.20;;;;;;;;;;5105237;28;41661;-63
2023/07/31 09:06:03;;;;;;;4.38;1.33;;;;;;;;;;5106036;27;42737;-62
2023/07/31 09:08:31;;;;;;;7.32;1.33;;;;;;;;;;5105318;27;41316;-62
2023/07/31 09:11:00;;;;;;;7.50;1.52;;;;;;;;;;5106690;27;41842;-62
2023/07/31 09:13:30;;;;;;;5.32;0.95;;;;;;;;;;5106693;27;42757;-63
2023/07/31 09:15:58;;;;;;;4.35;1.08;;;;;;;;;;5107184;27;41803;-63
2023/07/31 09:18:26;;;;;;;4.10;1.05;;;;;;;;;;5098453;28;42245;-63
2023/07/31 09:21:03;;;;;;;4.65;1.13;;;;;;;;;;5100440;27;41485;-63
2023/07/31 09:23:43;;;;;;;2.70;1.10;;;;;;;;;;5109507;27;42133;-65
2023/07/31 09:26:11;;;;;;;3.25;1.00;;;;;;;;;;5109531;27;41865;-65
2023/07/31 09:28:41;;;;;;;2.83;1.20;;;;;;;;;;5099332;28;41781;-67
2023/07/31 09:31:09;;;;;;;4.13;1.20;;;;;;;;;;5101021;27;41089;-69
2023/07/31 09:33:37;;;;;;;6.68;1.10;;;;;;;;;;5106631;27;42173;-67
2023/07/31 09:36:05;;;;;;;3.10;0.75;;;;;;;;;;5102609;27;41427;-67
2023/07/31 09:38:33;;;;;;;1.10;0.90;;;;;;;;;;5109063;27;41909;-66
2023/07/31 09:41:01;;;;;;;2.67;1.05;;;;;;;;;;5109488;27;41632;-66
2023/07/31 09:43:29;;;;;;;2.72;1.17;;;;;;;;;;5108117;27;41901;-64
2023/07/31 09:45:58;;;;;;;3.95;0.98;;;;;;;;;;5109615;27;43103;-62
2023/07/31 09:48:30;;;;;;;4.93;1.08;;;;;;;;;;5108883;27;42390;-62
2023/07/31 09:50:58;;;;;;;1.38;0.88;;;;;;;;;;5109175;27;42600;-64
2023/07/31 09:53:29;;;;;;;4.80;1.13;;;;;;;;;;5108951;27;40341;-64
2023/07/31 09:55:57;;;;;;;2.10;1.30;;;;;;;;;;5108880;27;42384;-66
2023/07/31 09:58:25;;;;;;;3.83;0.98;;;;;;;;;;5109399;27;42477;-64
2023/07/31 10:00:53;;;;;;;3.95;1.23;;;;;;;;;;5094874;27;42281;-64
2023/07/31 10:03:22;;;;;;;6.00;1.20;;;;;;;;;;5088642;28;41232;-65
2023/07/31 10:05:53;;;;;;;5.05;1.30;;;;;;;;;;5094402;28;42580;-67
2023/07/31 10:08:21;;;;;;;7.55;1.40;;;;;;;;;;5098727;28;41908;-64
2023/07/31 10:10:48;;;;;;;2.50;1.10;;;;;;;;;;5091367;27;42221;-64
2023/07/31 10:13:16;;;;;;;3.33;1.20;;;;;;;;;;5105271;28;42602;-64
2023/07/31 10:15:44;;;;;;;2.45;1.20;;;;;;;;;;5108828;27;42304;-66
2023/07/31 10:18:13;;;;;;;4.50;1.33;;;;;;;;;;5108858;27;40975;-66
2023/07/31 10:20:42;;;;;;;2.95;1.30;;;;;;;;;;5108646;27;42145;-67
2023/07/31 10:23:10;;;;;;;1.60;1.23;;;;;;;;;;5106176;27;40925;-67
2023/07/31 10:25:38;;;;;;;3.05;1.65;;;;;;;;;;5093870;28;40154;-64
2023/07/31 10:28:06;;;;;;;2.30;1.35;;;;;;;;;;5108519;27;41426;-66
2023/07/31 10:30:34;;;;;;;2.85;1.40;;;;;;;;;;5108307;27;42570;-65
2023/07/31 10:33:02;;;;;;;1.98;1.67;;;;;;;;;;5104508;27;41791;-66
2023/07/31 10:35:30;;;;;;;9.10;2.10;;;;;;;;;;5095690;27;41056;-64
2023/07/31 10:38:06;;;;;;;4.03;1.63;;;;;;;;;;5102610;27;42802;-69
2023/07/31 10:40:34;;;;;;;5.90;2.33;;;;;;;;;;5086542;28;42285;-71
2023/07/31 10:43:02;;;;;;;4.90;1.95;;;;;;;;;;5106275;28;41884;-71
2023/07/31 10:45:32;;;;;;;3.75;1.70;;;;;;;;;;5106733;27;41623;-69
2023/07/31 10:48:01;;;;;;;2.88;1.98;;;;;;;;;;5108392;27;42799;-67
2023/07/31 10:50:29;;;;;;;7.55;2.65;;;;;;;;;;5105294;27;41874;-63
2023/07/31 10:52:58;;;;;;;5.05;2.47;;;;;;;;;;5094654;28;42278;-63
2023/07/31 10:55:30;;;;;;;3.78;2.47;;;;;;;;;;5097256;28;41264;-66
2023/07/31 10:57:59;;;;;;;2.83;1.98;;;;;;;;;;5097920;27;41971;-63
2023/07/31 11:00:27;;;;;;;5.93;2.58;;;;;;;;;;5103583;27;42544;-63
2023/07/31 11:03:05;;;;;;;14.50;3.25;;;;;;;;;;5107042;27;41812;-63
2023/07/31 11:05:46;;;;;;;4.20;2.60;;;;;;;;;;5104183;27;43256;-62
2023/07/31 11:08:14;;;;;;;4.65;2.60;;;;;;;;;;5105212;27;42766;-63
2023/07/31 11:10:44;;;;;;;5.10;2.80;;;;;;;;;;5105892;27;42227;-63
2023/07/31 11:13:12;;;;;;;6.72;3.10;;;;;;;;;;5106968;27;41900;-63
2023/07/31 11:15:39;;;;;;;7.40;3.13;;;;;;;;;;5115047;27;40853;-63
2023/07/31 11:18:10;;;;;;;4.05;2.92;;;;;;;;;;5106937;27;41412;-63
2023/07/31 11:20:38;;;;;;;4.18;2.95;;;;;;;;;;5105029;27;41699;-63
2023/07/31 11:23:07;;;;;;;8.55;3.25;;;;;;;;;;5106471;27;41287;-63
2023/07/31 11:25:35;;;;;;;4.95;2.80;;;;;;;;;;5107073;27;42596;-63
2023/07/31 11:28:05;;;;;;;7.43;3.20;;;;;;;;;;5104960;27;41840;-63
2023/07/31 11:30:33;;;;;;;3.88;3.20;;;;;;;;;;5107031;27;41803;-63
2023/07/31 11:33:02;;;;;;;3.97;3.17;;;;;;;;;;5105464;27;42042;-63
2023/07/31 11:35:31;;;;;;;3.20;2.85;;;;;;;;;;5106891;27;41403;-63
2023/07/31 11:37:59;;;;;;;4.28;3.45;;;;;;;;;;5105460;27;41807;-62
2023/07/31 11:40:29;;;;;;;4.55;3.55;;;;;;;;;;5106394;27;42406;-63
2023/07/31 11:43:00;;;;;;;4.03;3.25;;;;;;;;;;5106218;28;41337;-63
2023/07/31 11:45:29;;;;;;;6.60;3.55;;;;;;;;;;5103808;27;41868;-62
2023/07/31 11:47:57;;;;;;;5.47;3.28;;;;;;;;;;5106818;27;41857;-63
2023/07/31 11:50:26;;;;;;;7.20;3.40;;;;;;;;;;5104340;27;41478;-63
2023/07/31 11:52:54;;;;;;;5.32;3.38;;;;;;;;;;5100992;27;41655;-63
2023/07/31 11:55:22;;;;;;;8.10;3.38;;;;;;;;;;5100977;27;42236;-63
2023/07/31 11:57:50;;;;;;;6.00;3.53;;;;;;;;;;5091811;27;41117;-63
2023/07/31 12:00:18;;;;;;;6.07;3.63;;;;;;;;;;5099818;27;42093;-63
2023/07/31 12:02:47;;;;;;;4.20;3.20;;;;;;;;;;5099080;27;42635;-63
2023/07/31 12:05:15;;;;;;;3.92;3.28;;;;;;;;;;5102424;27;41658;-70
2023/07/31 12:07:44;;;;;;;5.25;3.50;;;;;;;;;;5098401;27;42580;-69
2023/07/31 12:10:12;;;;;;;5.75;3.72;;;;;;;;;;5099608;27;41340;-67
2023/07/31 12:12:40;;;;;;;5.70;3.38;;;;;;;;;;5089905;27;41779;-67
2023/07/31 12:15:14;;;;;;;7.03;3.90;;;;;;;;;;5103251;27;41688;-67
2023/07/31 12:17:42;;;;;;;3.60;3.28;;;;;;;;;;5100017;27;42295;-68
2023/07/31 12:20:12;;;;;;;5.22;3.70;;;;;;;;;;5098749;27;42680;-66
2023/07/31 12:22:40;;;;;;;5.18;3.38;;;;;;;;;;5097625;27;41490;-66
2023/07/31 12:25:08;;;;;;;5.38;3.70;;;;;;;;;;5106496;27;41928;-69
2023/07/31 12:27:36;;;;;;;4.28;3.65;;;;;;;;;;5105526;27;42270;-64
2023/07/31 12:30:08;;;;;;;4.82;3.92;;;;;;;;;;5105863;27;41025;-64
2023/07/31 12:32:36;;;;;;;6.30;3.60;;;;;;;;;;5104266;27;42417;-66
2023/07/31 12:35:07;;;;;;;9.20;4.20;;;;;;;;;;5106630;27;42553;-67
2023/07/31 12:37:36;;;;;;;7.30;3.88;;;;;;;;;;5106218;27;41809;-66
2023/07/31 12:40:04;;;;;;;12.40;4.32;;;;;;;;;;5105833;27;42798;-63
2023/07/31 12:42:36;;;;;;;7.75;3.97;;;;;;;;;;5105280;27;42472;-62
2023/07/31 12:45:04;;;;;;;11.45;3.88;;;;;;;;;;5105204;27;41491;-67
2023/07/31 12:47:32;;;;;;;5.90;3.95;;;;;;;;;;5105537;27;43057;-68
2023/07/31 12:50:00;;;;;;;5.68;4.22;;;;;;;;;;5105590;27;41495;-66
2023/07/31 12:52:28;;;;;;;6.20;3.80;;;;;;;;;;5098745;28;41518;-66
2023/07/31 12:54:57;;;;;;;7.22;4.28;;;;;;;;;;5108320;27;41778;-68
2023/07/31 12:57:25;;;;;;;9.52;3.90;;;;;;;;;;5108904;27;40943;-65
2023/07/31 12:59:53;;;;;;;7.75;3.67;;;;;;;;;;5108210;27;42142;-65
2023/07/31 13:02:21;;;;;;;6.88;3.92;;;;;;;;;;5108963;27;42167;-66
2023/07/31 13:04:54;;;;;;;5.15;3.67;;;;;;;;;;5109211;27;42755;-68
2023/07/31 13:07:22;;;;;;;7.47;4.18;;;;;;;;;;5107426;27;42220;-69
2023/07/31 13:09:50;;;;;;;9.20;3.88;;;;;;;;;;5110636;27;41670;-67
2023/07/31 13:12:19;;;;;;;7.53;4.13;;;;;;;;;;5095797;27;42160;-70
2023/07/31 13:14:47;;;;;;;8.98;3.58;;;;;;;;;;5092184;27;42442;-68
2023/07/31 13:17:18;;;;;;;5.25;3.22;;;;;;;;;;5106581;27;41332;-68
2023/07/31 13:19:46;;;;;;;7.07;3.63;;;;;;;;;;5109512;27;41846;-68
2023/07/31 13:22:14;;;;;;;7.28;3.58;;;;;;;;;;5108429;27;33189;-69
2023/07/31 13:24:42;;;;;;;5.80;3.30;;;;;;;;;;5090553;27;41870;-68
2023/07/31 13:27:10;;;;;;;7.40;3.72;;;;;;;;;;5095794;28;42231;-68
2023/07/31 13:29:40;;;;;;;3.88;3.47;;;;;;;;;;5107481;27;41245;-68
2023/07/31 13:32:08;;;;;;;7.90;3.50;;;;;;;;;;5108126;27;42232;-68
2023/07/31 13:34:36;;;;;;;6.43;3.65;;;;;;;;;;5107102;27;42122;-67
2023/07/31 13:37:05;;;;;;;5.82;3.40;;;;;;;;;;5106029;27;42185;-66
2023/07/31 13:39:33;;;;;;;3.97;3.50;;;;;;;;;;5105378;27;41388;-66
2023/07/31 13:42:02;;;;;;;5.28;3.53;;;;;;;;;;5108938;27;42754;-68
2023/07/31 13:44:30;;;;;;;4.78;3.80;;;;;;;;;;5107223;27;41044;-70
2023/07/31 13:47:00;;;;;;;5.70;3.35;;;;;;;;;;5100587;27;43068;-69
2023/07/31 13:49:28;;;;;;;4.28;3.30;;;;;;;;;;5107342;27;41668;-67
2023/07/31 13:51:56;;;;;;;6.65;3.50;;;;;;;;;;5108714;27;42246;-69
2023/07/31 13:54:24;;;;;;;4.20;3.38;;;;;;;;;;5127521;27;41751;-70
2023/07/31 13:56:52;;;;;;;5.40;3.72;;;;;;;;;;5106560;27;42866;-68
2023/07/31 13:59:20;;;;;;;5.53;3.35;;;;;;;;;;5102724;27;41300;-68
2023/07/31 14:01:48;;;;;;;5.18;3.20;;;;;;;;;;5101849;28;41915;-67
2023/07/31 14:04:17;;;;;;;5.53;3.28;;;;;;;;;;5088282;28;40455;-68
2023/07/31 14:06:45;;;;;;;3.85;3.00;;;;;;;;;;5101760;28;42095;-64
2023/07/31 14:09:14;;;;;;;8.70;3.67;;;;;;;;;;5106416;27;41247;-66
2023/07/31 14:11:42;;;;;;;6.03;3.72;;;;;;;;;;5108239;27;41072;-65
2023/07/31 14:14:10;;;;;;;5.15;3.17;;;;;;;;;;5098396;27;43337;-64
2023/07/31 14:16:38;;;;;;;5.25;3.35;;;;;;;;;;5098287;28;42533;-65
2023/07/31 14:19:07;;;;;;;4.28;3.20;;;;;;;;;;5105664;27;42333;-64
2023/07/31 14:21:37;;;;;;;6.80;3.20;;;;;;;;;;5108027;27;43099;-64
2023/07/31 14:24:05;;;;;;;4.07;3.28;;;;;;;;;;5106336;27;41347;-65
2023/07/31 14:26:33;;;;;;;4.65;3.00;;;;;;;;;;5106237;28;44666;-66
2023/07/31 14:29:01;;;;;;;3.85;3.10;;;;;;;;;;5107784;27;42265;-66
2023/07/31 14:31:29;;;;;;;4.43;2.95;;;;;;;;;;5103018;27;41461;-64
2023/07/31 14:33:57;;;;;;;5.28;3.88;;;;;;;;;;5101802;27;43178;-65
2023/07/31 14:36:25;;;;;;;7.05;3.22;;;;;;;;;;5101447;28;40456;-65
2023/07/31 14:38:54;;;;;;;8.13;3.22;;;;;;;;;;5103261;27;42442;-64
2023/07/31 14:41:22;;;;;;;3.78;3.25;;;;;;;;;;5097878;27;42976;-65
2023/07/31 14:43:51;;;;;;;7.90;3.45;;;;;;;;;;5095634;27;42010;-64
2023/07/31 14:46:19;;;;;;;3.55;2.88;;;;;;;;;;5102800;27;42878;-65
2023/07/31 14:48:46;;;;;;;5.68;3.38;;;;;;;;;;5107510;27;41597;-64